sensor_id;sensor_type;location;lat;lon;timestamp;temperature;humidity
336;DHT22;156;48.738;9.228;2022-08-01T00:02:21;22.00;1.00
336;DHT22;156;48.738;9.228;2022-08-01T00:04:49;21.90;1.00
336;DHT22;156;48.738;9.228;2022-08-01T00:07:16;21.70;1.00
336;DHT22;156;48.738;9.228;2022-08-01T00:09:43;21.50;1.00
336;DHT22;156;48.738;9.228;2022-08-01T00:12:10;21.40;1.00
336;DHT22;156;48.738;9.228;2022-08-01T00:14:37;21.40;1.00
336;DHT22;156;48.738;9.228;2022-08-01T00:17:04;21.50;1.00
336;DHT22;156;48.738;9.228;2022-08-01T00:19:31;21.50;1.00
336;DHT22;156;48.738;9.228;2022-08-01T00:21:59;21.60;1.00
336;DHT22;156;48.738;9.228;2022-08-01T00:24:27;21.70;1.00
336;DHT22;156;48.738;9.228;2022-08-01T00:26:54;21.60;1.00
336;DHT22;156;48.738;9.228;2022-08-01T00:29:21;21.60;1.00
336;DHT22;156;48.738;9.228;2022-08-01T00:31:48;21.60;1.00
336;DHT22;156;48.738;9.228;2022-08-01T00:34:15;21.50;1.00
336;DHT22;156;48.738;9.228;2022-08-01T00:36:42;21.40;1.00
336;DHT22;156;48.738;9.228;2022-08-01T00:39:10;21.40;1.00
336;DHT22;156;48.738;9.228;2022-08-01T00:41:37;21.40;1.00
336;DHT22;156;48.738;9.228;2022-08-01T00:44:04;21.40;1.00
336;DHT22;156;48.738;9.228;2022-08-01T00:46:32;21.40;1.00
336;DHT22;156;48.738;9.228;2022-08-01T00:48:59;21.40;1.00
336;DHT22;156;48.738;9.228;2022-08-01T00:51:26;21.40;1.00
336;DHT22;156;48.738;9.228;2022-08-01T00:53:54;21.30;1.00
336;DHT22;156;48.738;9.228;2022-08-01T00:56:25;21.20;1.00
336;DHT22;156;48.738;9.228;2022-08-01T00:58:52;21.20;1.00
336;DHT22;156;48.738;9.228;2022-08-01T01:01:19;21.20;1.00
336;DHT22;156;48.738;9.228;2022-08-01T01:03:47;21.10;1.00
336;DHT22;156;48.738;9.228;2022-08-01T01:06:25;21.20;1.00
336;DHT22;156;48.738;9.228;2022-08-01T01:09:02;21.20;1.00
336;DHT22;156;48.738;9.228;2022-08-01T01:11:40;21.20;1.00
336;DHT22;156;48.738;9.228;2022-08-01T01:14:17;21.20;1.00
336;DHT22;156;48.738;9.228;2022-08-01T01:16:48;21.30;1.00
336;DHT22;156;48.738;9.228;2022-08-01T01:19:23;21.30;1.00
336;DHT22;156;48.738;9.228;2022-08-01T01:22:06;21.30;1.00
336;DHT22;156;48.738;9.228;2022-08-01T01:24:40;21.20;1.00
336;DHT22;156;48.738;9.228;2022-08-01T01:27:20;21.20;1.00
336;DHT22;156;48.738;9.228;2022-08-01T01:29:52;21.20;1.00
336;DHT22;156;48.738;9.228;2022-08-01T01:32:22;21.20;1.00
336;DHT22;156;48.738;9.228;2022-08-01T01:34:50;21.20;1.00
336;DHT22;156;48.738;9.228;2022-08-01T01:37:21;21.10;1.00
336;DHT22;156;48.738;9.228;2022-08-01T01:39:50;21.10;1.00
336;DHT22;156;48.738;9.228;2022-08-01T01:42:18;21.10;1.00
336;DHT22;156;48.738;9.228;2022-08-01T01:44:46;21.00;1.00
336;DHT22;156;48.738;9.228;2022-08-01T01:47:16;20.80;1.00
336;DHT22;156;48.738;9.228;2022-08-01T01:49:45;20.80;1.00
336;DHT22;156;48.738;9.228;2022-08-01T01:52:14;20.70;1.00
336;DHT22;156;48.738;9.228;2022-08-01T01:54:45;20.70;1.00
336;DHT22;156;48.738;9.228;2022-08-01T01:57:15;20.60;1.00
336;DHT22;156;48.738;9.228;2022-08-01T01:59:42;20.60;1.00
336;DHT22;156;48.738;9.228;2022-08-01T02:02:11;20.50;1.00
336;DHT22;156;48.738;9.228;2022-08-01T02:04:42;20.50;1.00
336;DHT22;156;48.738;9.228;2022-08-01T02:07:12;20.50;1.00
336;DHT22;156;48.738;9.228;2022-08-01T02:09:42;20.50;1.00
336;DHT22;156;48.738;9.228;2022-08-01T02:12:10;20.50;1.00
336;DHT22;156;48.738;9.228;2022-08-01T02:14:38;20.40;1.00
336;DHT22;156;48.738;9.228;2022-08-01T02:17:06;20.40;1.00
336;DHT22;156;48.738;9.228;2022-08-01T02:19:33;20.30;1.00
336;DHT22;156;48.738;9.228;2022-08-01T02:22:05;20.30;1.00
336;DHT22;156;48.738;9.228;2022-08-01T02:24:37;20.30;1.00
336;DHT22;156;48.738;9.228;2022-08-01T02:27:12;20.30;1.00
336;DHT22;156;48.738;9.228;2022-08-01T02:29:47;20.20;1.00
336;DHT22;156;48.738;9.228;2022-08-01T02:32:23;20.30;1.00
336;DHT22;156;48.738;9.228;2022-08-01T02:34:51;20.20;1.00
336;DHT22;156;48.738;9.228;2022-08-01T02:37:20;20.20;1.00
336;DHT22;156;48.738;9.228;2022-08-01T02:39:51;20.30;1.00
336;DHT22;156;48.738;9.228;2022-08-01T02:42:19;20.30;1.00
336;DHT22;156;48.738;9.228;2022-08-01T02:44:47;20.20;1.00
336;DHT22;156;48.738;9.228;2022-08-01T02:47:15;20.30;1.00
336;DHT22;156;48.738;9.228;2022-08-01T02:49:45;20.30;1.00
336;DHT22;156;48.738;9.228;2022-08-01T02:52:15;20.30;1.00
336;DHT22;156;48.738;9.228;2022-08-01T02:54:46;20.20;1.00
336;DHT22;156;48.738;9.228;2022-08-01T02:57:14;20.30;1.00
336;DHT22;156;48.738;9.228;2022-08-01T02:59:43;20.20;1.00
336;DHT22;156;48.738;9.228;2022-08-01T03:02:12;20.20;1.00
336;DHT22;156;48.738;9.228;2022-08-01T03:04:40;20.10;1.00
336;DHT22;156;48.738;9.228;2022-08-01T03:07:08;20.10;1.00
336;DHT22;156;48.738;9.228;2022-08-01T03:09:38;20.00;1.00
336;DHT22;156;48.738;9.228;2022-08-01T03:12:10;19.90;1.00
336;DHT22;156;48.738;9.228;2022-08-01T03:14:39;19.90;1.00
336;DHT22;156;48.738;9.228;2022-08-01T03:17:07;19.90;1.00
336;DHT22;156;48.738;9.228;2022-08-01T03:19:35;19.80;1.00
336;DHT22;156;48.738;9.228;2022-08-01T03:22:06;19.80;1.00
336;DHT22;156;48.738;9.228;2022-08-01T03:24:34;19.60;1.00
336;DHT22;156;48.738;9.228;2022-08-01T03:27:02;19.70;1.00
336;DHT22;156;48.738;9.228;2022-08-01T03:29:32;19.60;1.00
336;DHT22;156;48.738;9.228;2022-08-01T03:32:00;19.70;1.00
336;DHT22;156;48.738;9.228;2022-08-01T03:34:28;19.60;1.00
336;DHT22;156;48.738;9.228;2022-08-01T03:36:59;19.60;1.00
336;DHT22;156;48.738;9.228;2022-08-01T03:39:30;19.50;1.00
336;DHT22;156;48.738;9.228;2022-08-01T03:42:01;19.50;1.00
336;DHT22;156;48.738;9.228;2022-08-01T03:44:33;19.50;1.00
336;DHT22;156;48.738;9.228;2022-08-01T03:47:06;19.40;1.00
336;DHT22;156;48.738;9.228;2022-08-01T03:49:37;19.40;1.00
336;DHT22;156;48.738;9.228;2022-08-01T03:52:09;19.40;1.00
336;DHT22;156;48.738;9.228;2022-08-01T03:54:40;19.40;1.00
336;DHT22;156;48.738;9.228;2022-08-01T03:57:07;19.40;1.00
336;DHT22;156;48.738;9.228;2022-08-01T03:59:37;19.50;1.00
336;DHT22;156;48.738;9.228;2022-08-01T04:02:05;19.40;1.50
336;DHT22;156;48.738;9.228;2022-08-01T04:04:33;19.50;2.40
336;DHT22;156;48.738;9.228;2022-08-01T04:07:00;19.40;3.20
336;DHT22;156;48.738;9.228;2022-08-01T04:09:30;19.50;3.80
336;DHT22;156;48.738;9.228;2022-08-01T04:11:58;19.50;5.60
336;DHT22;156;48.738;9.228;2022-08-01T04:14:25;19.50;6.70
336;DHT22;156;48.738;9.228;2022-08-01T04:16:54;19.50;6.90
336;DHT22;156;48.738;9.228;2022-08-01T04:19:21;19.50;8.00
336;DHT22;156;48.738;9.228;2022-08-01T04:21:49;19.60;7.50
336;DHT22;156;48.738;9.228;2022-08-01T04:24:18;19.60;8.30
336;DHT22;156;48.738;9.228;2022-08-01T04:26:47;19.60;8.40
336;DHT22;156;48.738;9.228;2022-08-01T04:29:17;19.50;9.10
336;DHT22;156;48.738;9.228;2022-08-01T04:31:46;19.60;9.60
336;DHT22;156;48.738;9.228;2022-08-01T04:34:17;19.60;10.40
336;DHT22;156;48.738;9.228;2022-08-01T04:36:47;19.60;11.80
336;DHT22;156;48.738;9.228;2022-08-01T04:39:16;19.60;12.30
336;DHT22;156;48.738;9.228;2022-08-01T04:41:46;19.70;13.40
336;DHT22;156;48.738;9.228;2022-08-01T04:44:14;19.70;14.20
336;DHT22;156;48.738;9.228;2022-08-01T04:46:42;19.70;14.30
336;DHT22;156;48.738;9.228;2022-08-01T04:49:15;19.70;14.60
336;DHT22;156;48.738;9.228;2022-08-01T04:51:50;19.70;15.00
336;DHT22;156;48.738;9.228;2022-08-01T04:54:17;19.70;16.20
336;DHT22;156;48.738;9.228;2022-08-01T04:56:47;19.70;16.50
336;DHT22;156;48.738;9.228;2022-08-01T04:59:13;19.80;17.30
336;DHT22;156;48.738;9.228;2022-08-01T05:01:58;19.80;17.10
336;DHT22;156;48.738;9.228;2022-08-01T05:04:26;19.80;17.90
336;DHT22;156;48.738;9.228;2022-08-01T05:06:53;19.80;17.30
336;DHT22;156;48.738;9.228;2022-08-01T05:09:20;19.90;17.30
336;DHT22;156;48.738;9.228;2022-08-01T05:11:47;19.90;17.50
336;DHT22;156;48.738;9.228;2022-08-01T05:14:14;19.90;18.20
336;DHT22;156;48.738;9.228;2022-08-01T05:16:41;19.90;17.50
336;DHT22;156;48.738;9.228;2022-08-01T05:19:08;19.90;18.50
336;DHT22;156;48.738;9.228;2022-08-01T05:21:36;20.00;18.30
336;DHT22;156;48.738;9.228;2022-08-01T05:24:04;20.00;17.80
336;DHT22;156;48.738;9.228;2022-08-01T05:26:31;20.00;18.30
336;DHT22;156;48.738;9.228;2022-08-01T05:28:58;20.10;18.70
336;DHT22;156;48.738;9.228;2022-08-01T05:31:26;20.20;17.50
336;DHT22;156;48.738;9.228;2022-08-01T05:33:52;20.30;16.50
336;DHT22;156;48.738;9.228;2022-08-01T05:36:19;20.40;16.60
336;DHT22;156;48.738;9.228;2022-08-01T05:38:48;20.50;14.50
336;DHT22;156;48.738;9.228;2022-08-01T05:41:14;20.50;13.80
336;DHT22;156;48.738;9.228;2022-08-01T05:43:41;20.60;13.40
336;DHT22;156;48.738;9.228;2022-08-01T05:46:08;20.60;14.00
336;DHT22;156;48.738;9.228;2022-08-01T05:48:35;20.60;13.50
336;DHT22;156;48.738;9.228;2022-08-01T05:51:02;20.70;13.10
336;DHT22;156;48.738;9.228;2022-08-01T05:53:29;20.60;13.60
336;DHT22;156;48.738;9.228;2022-08-01T05:56:01;20.70;14.30
336;DHT22;156;48.738;9.228;2022-08-01T05:58:28;20.70;13.60
336;DHT22;156;48.738;9.228;2022-08-01T06:00:55;20.80;14.20
336;DHT22;156;48.738;9.228;2022-08-01T06:03:21;20.80;13.00
336;DHT22;156;48.738;9.228;2022-08-01T06:05:48;20.80;12.60
336;DHT22;156;48.738;9.228;2022-08-01T06:08:15;20.80;12.60
336;DHT22;156;48.738;9.228;2022-08-01T06:10:42;20.90;12.20
336;DHT22;156;48.738;9.228;2022-08-01T06:13:10;21.00;11.60
336;DHT22;156;48.738;9.228;2022-08-01T06:15:38;21.10;9.90
336;DHT22;156;48.738;9.228;2022-08-01T06:18:05;21.20;9.10
336;DHT22;156;48.738;9.228;2022-08-01T06:20:31;21.30;5.60
336;DHT22;156;48.738;9.228;2022-08-01T06:22:58;21.40;5.50
336;DHT22;156;48.738;9.228;2022-08-01T06:25:25;21.40;3.10
336;DHT22;156;48.738;9.228;2022-08-01T06:27:52;21.50;2.80
336;DHT22;156;48.738;9.228;2022-08-01T06:30:21;21.60;1.00
336;DHT22;156;48.738;9.228;2022-08-01T06:32:48;21.60;1.00
336;DHT22;156;48.738;9.228;2022-08-01T06:35:15;21.70;1.00
336;DHT22;156;48.738;9.228;2022-08-01T06:37:42;21.70;1.00
336;DHT22;156;48.738;9.228;2022-08-01T06:40:11;21.70;1.00
336;DHT22;156;48.738;9.228;2022-08-01T06:42:38;21.70;1.00
336;DHT22;156;48.738;9.228;2022-08-01T06:45:07;21.80;1.00
336;DHT22;156;48.738;9.228;2022-08-01T06:47:36;21.90;1.00
336;DHT22;156;48.738;9.228;2022-08-01T06:50:04;21.90;1.00
336;DHT22;156;48.738;9.228;2022-08-01T06:52:32;21.80;1.00
336;DHT22;156;48.738;9.228;2022-08-01T06:54:59;21.80;1.00
336;DHT22;156;48.738;9.228;2022-08-01T06:57:26;21.80;1.00
336;DHT22;156;48.738;9.228;2022-08-01T06:59:54;21.80;1.00
336;DHT22;156;48.738;9.228;2022-08-01T07:02:21;21.90;1.00
336;DHT22;156;48.738;9.228;2022-08-01T07:04:49;21.90;1.00
336;DHT22;156;48.738;9.228;2022-08-01T07:07:16;22.10;1.00
336;DHT22;156;48.738;9.228;2022-08-01T07:09:43;22.10;1.00
336;DHT22;156;48.738;9.228;2022-08-01T07:12:10;22.20;1.00
336;DHT22;156;48.738;9.228;2022-08-01T07:14:37;22.20;1.00
336;DHT22;156;48.738;9.228;2022-08-01T07:17:04;22.30;1.00
336;DHT22;156;48.738;9.228;2022-08-01T07:19:31;22.20;1.00
336;DHT22;156;48.738;9.228;2022-08-01T07:22:00;22.40;1.00
336;DHT22;156;48.738;9.228;2022-08-01T07:24:27;22.40;1.00
336;DHT22;156;48.738;9.228;2022-08-01T07:26:54;22.40;1.00
336;DHT22;156;48.738;9.228;2022-08-01T07:29:23;22.40;1.00
336;DHT22;156;48.738;9.228;2022-08-01T07:31:50;22.40;1.00
336;DHT22;156;48.738;9.228;2022-08-01T07:34:16;22.60;1.00
336;DHT22;156;48.738;9.228;2022-08-01T07:36:43;22.70;1.00
336;DHT22;156;48.738;9.228;2022-08-01T07:39:12;22.70;1.00
336;DHT22;156;48.738;9.228;2022-08-01T07:41:39;22.80;1.00
336;DHT22;156;48.738;9.228;2022-08-01T07:44:05;22.60;1.00
336;DHT22;156;48.738;9.228;2022-08-01T07:46:32;22.70;1.00
336;DHT22;156;48.738;9.228;2022-08-01T07:48:59;22.80;1.00
336;DHT22;156;48.738;9.228;2022-08-01T07:51:26;23.00;1.00
336;DHT22;156;48.738;9.228;2022-08-01T07:53:53;23.00;1.00
336;DHT22;156;48.738;9.228;2022-08-01T07:56:21;23.00;1.00
336;DHT22;156;48.738;9.228;2022-08-01T07:58:49;23.00;1.00
336;DHT22;156;48.738;9.228;2022-08-01T08:01:16;22.90;1.00
336;DHT22;156;48.738;9.228;2022-08-01T08:03:43;23.10;1.00
336;DHT22;156;48.738;9.228;2022-08-01T08:06:10;23.10;1.00
336;DHT22;156;48.738;9.228;2022-08-01T08:08:37;23.10;1.00
336;DHT22;156;48.738;9.228;2022-08-01T08:11:04;23.20;1.00
336;DHT22;156;48.738;9.228;2022-08-01T08:13:32;23.40;1.00
336;DHT22;156;48.738;9.228;2022-08-01T08:15:59;23.20;1.00
336;DHT22;156;48.738;9.228;2022-08-01T08:18:26;23.30;1.00
336;DHT22;156;48.738;9.228;2022-08-01T08:20:53;23.20;1.00
336;DHT22;156;48.738;9.228;2022-08-01T08:23:19;23.30;1.00
336;DHT22;156;48.738;9.228;2022-08-01T08:26:03;23.50;1.00
336;DHT22;156;48.738;9.228;2022-08-01T08:28:32;23.80;1.00
336;DHT22;156;48.738;9.228;2022-08-01T08:30:59;24.00;1.00
336;DHT22;156;48.738;9.228;2022-08-01T08:33:26;24.10;1.00
336;DHT22;156;48.738;9.228;2022-08-01T08:35:53;24.20;1.00
336;DHT22;156;48.738;9.228;2022-08-01T08:38:20;24.10;1.00
336;DHT22;156;48.738;9.228;2022-08-01T08:40:47;23.90;1.00
336;DHT22;156;48.738;9.228;2022-08-01T08:43:15;23.90;1.00
336;DHT22;156;48.738;9.228;2022-08-01T08:45:45;24.00;1.00
336;DHT22;156;48.738;9.228;2022-08-01T08:48:12;24.00;1.00
336;DHT22;156;48.738;9.228;2022-08-01T08:50:40;24.00;1.00
336;DHT22;156;48.738;9.228;2022-08-01T08:53:09;24.10;1.00
336;DHT22;156;48.738;9.228;2022-08-01T08:55:36;24.30;1.00
336;DHT22;156;48.738;9.228;2022-08-01T08:58:04;24.30;1.00
336;DHT22;156;48.738;9.228;2022-08-01T09:00:31;24.30;1.00
336;DHT22;156;48.738;9.228;2022-08-01T09:03:01;24.30;1.00
336;DHT22;156;48.738;9.228;2022-08-01T09:05:28;24.10;1.00
336;DHT22;156;48.738;9.228;2022-08-01T09:07:54;24.10;1.00
336;DHT22;156;48.738;9.228;2022-08-01T09:10:22;24.10;1.00
336;DHT22;156;48.738;9.228;2022-08-01T09:13:11;24.20;1.00
336;DHT22;156;48.738;9.228;2022-08-01T09:15:42;24.50;1.00
336;DHT22;156;48.738;9.228;2022-08-01T09:21:12;24.80;1.00
336;DHT22;156;48.738;9.228;2022-08-01T09:23:41;24.70;1.00
336;DHT22;156;48.738;9.228;2022-08-01T09:26:10;24.60;1.00
336;DHT22;156;48.738;9.228;2022-08-01T09:28:37;24.60;1.00
336;DHT22;156;48.738;9.228;2022-08-01T09:31:10;24.80;1.00
336;DHT22;156;48.738;9.228;2022-08-01T09:33:48;24.90;1.00
336;DHT22;156;48.738;9.228;2022-08-01T09:36:17;24.70;1.00
336;DHT22;156;48.738;9.228;2022-08-01T09:38:44;24.50;1.00
336;DHT22;156;48.738;9.228;2022-08-01T09:41:11;24.40;1.00
336;DHT22;156;48.738;9.228;2022-08-01T09:43:38;24.40;1.00
336;DHT22;156;48.738;9.228;2022-08-01T09:46:09;24.70;1.00
336;DHT22;156;48.738;9.228;2022-08-01T09:48:37;25.00;1.00
336;DHT22;156;48.738;9.228;2022-08-01T09:51:06;25.00;1.00
336;DHT22;156;48.738;9.228;2022-08-01T09:53:46;25.10;1.00
336;DHT22;156;48.738;9.228;2022-08-01T09:56:13;25.00;1.00
336;DHT22;156;48.738;9.228;2022-08-01T09:58:54;25.00;1.00
336;DHT22;156;48.738;9.228;2022-08-01T10:01:22;25.00;1.00
336;DHT22;156;48.738;9.228;2022-08-01T10:04:08;25.20;1.00
336;DHT22;156;48.738;9.228;2022-08-01T10:06:38;25.00;1.00
336;DHT22;156;48.738;9.228;2022-08-01T10:09:07;25.00;1.00
336;DHT22;156;48.738;9.228;2022-08-01T10:11:34;24.90;1.00
336;DHT22;156;48.738;9.228;2022-08-01T10:14:04;24.70;1.00
336;DHT22;156;48.738;9.228;2022-08-01T10:16:34;24.80;1.00
336;DHT22;156;48.738;9.228;2022-08-01T10:19:03;25.00;1.00
336;DHT22;156;48.738;9.228;2022-08-01T10:21:33;25.10;1.00
336;DHT22;156;48.738;9.228;2022-08-01T10:24:02;25.20;1.00
336;DHT22;156;48.738;9.228;2022-08-01T10:26:33;25.00;1.00
336;DHT22;156;48.738;9.228;2022-08-01T10:29:02;25.10;1.00
336;DHT22;156;48.738;9.228;2022-08-01T10:31:30;25.40;1.00
336;DHT22;156;48.738;9.228;2022-08-01T10:33:59;25.40;1.00
336;DHT22;156;48.738;9.228;2022-08-01T10:36:27;25.20;1.00
336;DHT22;156;48.738;9.228;2022-08-01T10:38:54;25.20;1.00
336;DHT22;156;48.738;9.228;2022-08-01T10:41:22;25.40;1.00
336;DHT22;156;48.738;9.228;2022-08-01T10:43:52;25.10;1.00
336;DHT22;156;48.738;9.228;2022-08-01T10:46:19;25.20;1.00
336;DHT22;156;48.738;9.228;2022-08-01T10:48:52;25.30;1.00
336;DHT22;156;48.738;9.228;2022-08-01T10:51:23;25.40;1.00
336;DHT22;156;48.738;9.228;2022-08-01T10:53:52;25.40;1.00
336;DHT22;156;48.738;9.228;2022-08-01T10:56:19;25.40;1.00
336;DHT22;156;48.738;9.228;2022-08-01T10:58:47;25.20;1.00
336;DHT22;156;48.738;9.228;2022-08-01T11:01:21;25.10;1.00
336;DHT22;156;48.738;9.228;2022-08-01T11:04:06;25.00;1.00
336;DHT22;156;48.738;9.228;2022-08-01T11:06:54;24.80;1.00
336;DHT22;156;48.738;9.228;2022-08-01T11:09:31;24.80;1.00
336;DHT22;156;48.738;9.228;2022-08-01T11:12:07;24.80;1.00
336;DHT22;156;48.738;9.228;2022-08-01T11:15:18;24.80;1.00
336;DHT22;156;48.738;9.228;2022-08-01T11:17:53;24.80;1.00
336;DHT22;156;48.738;9.228;2022-08-01T11:20:21;24.90;1.00
336;DHT22;156;48.738;9.228;2022-08-01T11:23:16;25.10;1.00
336;DHT22;156;48.738;9.228;2022-08-01T11:26:06;25.40;1.00
336;DHT22;156;48.738;9.228;2022-08-01T11:28:33;25.60;1.00
336;DHT22;156;48.738;9.228;2022-08-01T11:31:31;25.90;1.00
336;DHT22;156;48.738;9.228;2022-08-01T11:34:00;26.00;1.00
336;DHT22;156;48.738;9.228;2022-08-01T11:36:27;26.00;1.00
336;DHT22;156;48.738;9.228;2022-08-01T11:39:15;26.00;1.00
336;DHT22;156;48.738;9.228;2022-08-01T11:41:43;25.80;1.00
336;DHT22;156;48.738;9.228;2022-08-01T11:44:14;25.60;1.00
336;DHT22;156;48.738;9.228;2022-08-01T11:46:52;25.50;1.00
336;DHT22;156;48.738;9.228;2022-08-01T11:49:46;25.40;1.00
336;DHT22;156;48.738;9.228;2022-08-01T11:52:17;25.40;1.00
336;DHT22;156;48.738;9.228;2022-08-01T11:54:46;25.30;1.00
336;DHT22;156;48.738;9.228;2022-08-01T11:57:17;25.40;1.00
336;DHT22;156;48.738;9.228;2022-08-01T11:59:46;25.60;1.00
336;DHT22;156;48.738;9.228;2022-08-01T12:02:19;25.90;1.00
336;DHT22;156;48.738;9.228;2022-08-01T12:05:06;25.90;1.00
336;DHT22;156;48.738;9.228;2022-08-01T12:07:35;25.80;1.00
336;DHT22;156;48.738;9.228;2022-08-01T12:10:04;25.70;1.00
336;DHT22;156;48.738;9.228;2022-08-01T12:12:33;25.90;1.00
336;DHT22;156;48.738;9.228;2022-08-01T12:15:03;26.30;1.00
336;DHT22;156;48.738;9.228;2022-08-01T12:17:32;26.60;1.00
336;DHT22;156;48.738;9.228;2022-08-01T12:20:00;26.80;1.00
336;DHT22;156;48.738;9.228;2022-08-01T12:22:29;26.50;1.00
336;DHT22;156;48.738;9.228;2022-08-01T12:24:56;26.70;1.00
336;DHT22;156;48.738;9.228;2022-08-01T12:27:31;27.00;1.00
336;DHT22;156;48.738;9.228;2022-08-01T12:29:59;26.90;1.00
336;DHT22;156;48.738;9.228;2022-08-01T12:32:28;27.00;1.00
336;DHT22;156;48.738;9.228;2022-08-01T12:34:58;27.00;1.00
336;DHT22;156;48.738;9.228;2022-08-01T12:37:28;26.90;1.00
336;DHT22;156;48.738;9.228;2022-08-01T12:39:55;26.70;1.00
336;DHT22;156;48.738;9.228;2022-08-01T12:42:23;26.90;1.00
336;DHT22;156;48.738;9.228;2022-08-01T12:44:51;27.00;1.00
336;DHT22;156;48.738;9.228;2022-08-01T12:47:19;26.70;1.00
336;DHT22;156;48.738;9.228;2022-08-01T12:49:47;26.60;1.00
336;DHT22;156;48.738;9.228;2022-08-01T12:52:15;26.40;1.00
336;DHT22;156;48.738;9.228;2022-08-01T12:55:16;26.50;1.00
336;DHT22;156;48.738;9.228;2022-08-01T12:57:45;26.50;1.00
336;DHT22;156;48.738;9.228;2022-08-01T13:00:20;26.50;1.00
336;DHT22;156;48.738;9.228;2022-08-01T13:02:48;26.80;1.00
336;DHT22;156;48.738;9.228;2022-08-01T13:05:16;27.00;1.00
336;DHT22;156;48.738;9.228;2022-08-01T13:07:46;27.00;1.00
336;DHT22;156;48.738;9.228;2022-08-01T13:10:24;27.40;1.00
336;DHT22;156;48.738;9.228;2022-08-01T13:12:53;27.50;1.00
336;DHT22;156;48.738;9.228;2022-08-01T13:15:23;27.80;1.00
336;DHT22;156;48.738;9.228;2022-08-01T13:17:51;28.30;1.00
336;DHT22;156;48.738;9.228;2022-08-01T13:20:27;28.60;1.00
336;DHT22;156;48.738;9.228;2022-08-01T13:22:54;28.50;1.00
336;DHT22;156;48.738;9.228;2022-08-01T13:25:23;28.70;1.00
336;DHT22;156;48.738;9.228;2022-08-01T13:28:16;28.70;1.00
336;DHT22;156;48.738;9.228;2022-08-01T13:30:55;28.50;1.00
336;DHT22;156;48.738;9.228;2022-08-01T13:33:23;28.30;1.00
336;DHT22;156;48.738;9.228;2022-08-01T13:35:51;28.00;1.00
336;DHT22;156;48.738;9.228;2022-08-01T13:38:18;27.80;1.00
336;DHT22;156;48.738;9.228;2022-08-01T13:40:47;27.90;1.00
336;DHT22;156;48.738;9.228;2022-08-01T13:43:14;28.10;1.00
336;DHT22;156;48.738;9.228;2022-08-01T13:45:41;27.90;1.00
336;DHT22;156;48.738;9.228;2022-08-01T13:48:08;27.70;1.00
336;DHT22;156;48.738;9.228;2022-08-01T13:50:35;27.70;1.00
336;DHT22;156;48.738;9.228;2022-08-01T13:53:02;27.60;1.00
336;DHT22;156;48.738;9.228;2022-08-01T13:55:29;27.50;1.00
336;DHT22;156;48.738;9.228;2022-08-01T13:57:57;27.40;1.00
336;DHT22;156;48.738;9.228;2022-08-01T14:00:24;27.30;1.00
336;DHT22;156;48.738;9.228;2022-08-01T14:02:51;27.30;1.00
336;DHT22;156;48.738;9.228;2022-08-01T14:05:18;27.40;1.00
336;DHT22;156;48.738;9.228;2022-08-01T14:07:45;27.30;1.00
336;DHT22;156;48.738;9.228;2022-08-01T14:10:12;27.40;1.00
336;DHT22;156;48.738;9.228;2022-08-01T14:12:39;27.40;1.00
336;DHT22;156;48.738;9.228;2022-08-01T14:15:09;27.90;1.00
336;DHT22;156;48.738;9.228;2022-08-01T14:17:36;28.40;1.00
336;DHT22;156;48.738;9.228;2022-08-01T14:20:03;28.30;1.00
336;DHT22;156;48.738;9.228;2022-08-01T14:22:31;28.40;1.00
336;DHT22;156;48.738;9.228;2022-08-01T14:24:58;28.70;1.00
336;DHT22;156;48.738;9.228;2022-08-01T14:27:25;28.90;1.00
336;DHT22;156;48.738;9.228;2022-08-01T14:29:52;28.70;1.00
336;DHT22;156;48.738;9.228;2022-08-01T14:32:20;28.60;1.00
336;DHT22;156;48.738;9.228;2022-08-01T14:34:47;28.20;1.00
336;DHT22;156;48.738;9.228;2022-08-01T14:37:14;28.10;1.00
336;DHT22;156;48.738;9.228;2022-08-01T14:39:41;27.80;1.00
336;DHT22;156;48.738;9.228;2022-08-01T14:42:08;27.50;1.00
336;DHT22;156;48.738;9.228;2022-08-01T14:44:34;27.60;1.00
336;DHT22;156;48.738;9.228;2022-08-01T14:47:01;28.10;1.00
336;DHT22;156;48.738;9.228;2022-08-01T14:49:30;28.40;1.00
336;DHT22;156;48.738;9.228;2022-08-01T14:51:57;28.50;1.00
336;DHT22;156;48.738;9.228;2022-08-01T14:54:24;28.50;1.00
336;DHT22;156;48.738;9.228;2022-08-01T14:56:51;28.40;1.00
336;DHT22;156;48.738;9.228;2022-08-01T14:59:18;28.50;1.00
336;DHT22;156;48.738;9.228;2022-08-01T15:01:45;28.60;1.00
336;DHT22;156;48.738;9.228;2022-08-01T15:04:12;28.70;1.00
336;DHT22;156;48.738;9.228;2022-08-01T15:06:41;28.70;1.00
336;DHT22;156;48.738;9.228;2022-08-01T15:09:08;28.60;1.00
336;DHT22;156;48.738;9.228;2022-08-01T15:11:34;28.40;1.00
336;DHT22;156;48.738;9.228;2022-08-01T15:14:01;28.40;1.00
336;DHT22;156;48.738;9.228;2022-08-01T15:16:46;28.10;1.00
336;DHT22;156;48.738;9.228;2022-08-01T15:19:13;27.80;1.00
336;DHT22;156;48.738;9.228;2022-08-01T15:21:41;27.60;1.00
336;DHT22;156;48.738;9.228;2022-08-01T15:24:08;27.50;1.00
336;DHT22;156;48.738;9.228;2022-08-01T15:26:35;27.40;1.00
336;DHT22;156;48.738;9.228;2022-08-01T15:29:02;27.30;1.00
336;DHT22;156;48.738;9.228;2022-08-01T15:31:29;27.30;1.00
336;DHT22;156;48.738;9.228;2022-08-01T15:33:57;27.20;1.00
336;DHT22;156;48.738;9.228;2022-08-01T15:36:24;27.00;1.00
336;DHT22;156;48.738;9.228;2022-08-01T15:38:52;26.80;1.00
336;DHT22;156;48.738;9.228;2022-08-01T15:41:20;26.60;1.00
336;DHT22;156;48.738;9.228;2022-08-01T15:43:47;26.70;1.00
336;DHT22;156;48.738;9.228;2022-08-01T15:46:14;26.80;1.00
336;DHT22;156;48.738;9.228;2022-08-01T15:48:41;27.30;1.00
336;DHT22;156;48.738;9.228;2022-08-01T15:51:08;27.60;1.00
336;DHT22;156;48.738;9.228;2022-08-01T15:53:35;27.80;1.00
336;DHT22;156;48.738;9.228;2022-08-01T15:56:03;27.40;1.00
336;DHT22;156;48.738;9.228;2022-08-01T15:58:30;27.30;1.00
336;DHT22;156;48.738;9.228;2022-08-01T16:00:58;27.20;1.00
336;DHT22;156;48.738;9.228;2022-08-01T16:03:25;27.30;1.00
336;DHT22;156;48.738;9.228;2022-08-01T16:05:53;27.10;1.00
336;DHT22;156;48.738;9.228;2022-08-01T16:08:20;27.20;1.00
336;DHT22;156;48.738;9.228;2022-08-01T16:10:47;27.30;1.00
336;DHT22;156;48.738;9.228;2022-08-01T16:13:15;27.20;1.00
336;DHT22;156;48.738;9.228;2022-08-01T16:15:42;27.20;1.00
336;DHT22;156;48.738;9.228;2022-08-01T16:18:11;27.00;1.00
336;DHT22;156;48.738;9.228;2022-08-01T16:20:39;26.90;1.00
336;DHT22;156;48.738;9.228;2022-08-01T16:23:06;26.90;1.00
336;DHT22;156;48.738;9.228;2022-08-01T16:25:33;26.80;1.00
336;DHT22;156;48.738;9.228;2022-08-01T16:28:01;26.80;1.00
336;DHT22;156;48.738;9.228;2022-08-01T16:30:29;26.70;1.00
336;DHT22;156;48.738;9.228;2022-08-01T16:32:56;26.60;1.00
336;DHT22;156;48.738;9.228;2022-08-01T16:35:24;26.50;1.00
336;DHT22;156;48.738;9.228;2022-08-01T16:37:51;26.30;1.00
336;DHT22;156;48.738;9.228;2022-08-01T16:40:18;26.20;1.00
336;DHT22;156;48.738;9.228;2022-08-01T16:42:44;26.20;1.00
336;DHT22;156;48.738;9.228;2022-08-01T16:45:11;26.20;1.00
336;DHT22;156;48.738;9.228;2022-08-01T16:47:41;26.20;1.00
336;DHT22;156;48.738;9.228;2022-08-01T16:50:08;26.20;1.00
336;DHT22;156;48.738;9.228;2022-08-01T16:52:35;26.20;1.00
336;DHT22;156;48.738;9.228;2022-08-01T16:55:02;26.10;1.00
336;DHT22;156;48.738;9.228;2022-08-01T16:57:29;25.90;1.00
336;DHT22;156;48.738;9.228;2022-08-01T17:00:02;26.00;1.00
336;DHT22;156;48.738;9.228;2022-08-01T17:02:29;25.80;1.00
336;DHT22;156;48.738;9.228;2022-08-01T17:04:57;25.70;1.00
336;DHT22;156;48.738;9.228;2022-08-01T17:07:24;25.70;1.00